createdAt,value
2019-06-07T00:01:13.800Z,22.77
2019-06-07T00:03:42.020Z,22.20
2019-06-07T00:06:14.564Z,27.40
2019-06-07T00:08:40.171Z,25.40
2019-06-07T00:11:13.086Z,24.73
2019-06-07T00:13:38.307Z,24.80
2019-06-07T00:16:08.554Z,26.57
2019-06-07T00:18:36.672Z,27.47
2019-06-07T00:21:04.896Z,24.87
2019-06-07T00:23:33.091Z,27.23
2019-06-07T00:26:01.323Z,27.50
2019-06-07T00:28:29.530Z,24.60
2019-06-07T00:30:57.740Z,26.93
2019-06-07T00:33:25.959Z,27.37
2019-06-07T00:35:54.179Z,28.10
2019-06-07T00:38:22.379Z,25.57
2019-06-07T00:40:50.580Z,26.03
2019-06-07T00:43:26.204Z,31.60
2019-06-07T00:45:49.086Z,28.77
2019-06-07T00:48:27.335Z,25.87
2019-06-07T00:50:47.343Z,27.43
2019-06-07T00:53:26.946Z,27.03
2019-06-07T00:55:45.710Z,26.47
2019-06-07T00:58:15.460Z,26.87
2019-06-07T01:00:44.389Z,25.93
2019-06-07T01:03:12.806Z,25.93
2019-06-07T01:05:41.021Z,28.63
2019-06-07T01:08:09.238Z,29.80
2019-06-07T01:10:52.869Z,25.60
2019-06-07T01:13:07.401Z,33.83
2019-06-07T01:15:35.587Z,29.90
2019-06-07T01:20:33.974Z,31.93
2019-06-07T01:23:02.210Z,26.70
2019-06-07T01:25:30.410Z,28.97
2019-06-07T01:27:58.636Z,30.43
2019-06-07T01:30:29.069Z,26.03
2019-06-07T01:32:56.996Z,24.57
2019-06-07T01:35:25.564Z,28.93
2019-06-07T01:37:53.942Z,29.43
2019-06-07T01:40:27.323Z,27.47
2019-06-07T01:42:52.359Z,25.57
2019-06-07T01:45:21.338Z,28.00
2019-06-07T01:47:49.660Z,27.63
2019-06-07T01:50:22.518Z,27.63
2019-06-07T01:52:48.082Z,28.03
2019-06-07T01:55:18.621Z,26.03
2019-06-07T01:57:48.510Z,26.53
2019-06-07T02:00:17.431Z,25.20
2019-06-07T02:02:45.982Z,27.60
2019-06-07T02:05:14.267Z,22.93
2019-06-07T02:07:42.714Z,25.33
2019-06-07T02:10:11.291Z,22.53
2019-06-07T02:12:43.256Z,28.30
2019-06-07T02:15:09.841Z,21.80
2019-06-07T02:17:38.362Z,25.23
2019-06-07T02:20:06.790Z,26.87
2019-06-07T02:22:34.991Z,25.73
2019-06-07T02:25:35.050Z,24.47
2019-06-07T02:27:33.442Z,24.80
2019-06-07T02:30:35.643Z,23.87
2019-06-07T02:32:36.190Z,25.20
2019-06-07T02:35:02.033Z,29.10
2019-06-07T02:37:34.092Z,27.40
2019-06-07T02:40:00.408Z,22.10
2019-06-07T02:42:30.795Z,23.90
2019-06-07T02:44:58.801Z,26.40
2019-06-07T02:47:28.681Z,27.23
2019-06-07T02:49:56.927Z,29.37
2019-06-07T02:52:30.785Z,26.57
2019-06-07T02:54:55.296Z,26.33
2019-06-07T02:57:25.711Z,26.77
2019-06-07T03:00:07.043Z,29.10
2019-06-07T03:02:25.555Z,24.93
2019-06-07T03:04:53.335Z,25.33
2019-06-07T03:07:21.562Z,26.17
2019-06-07T03:09:49.790Z,24.37
2019-06-07T03:12:18.263Z,24.60
2019-06-07T03:14:46.489Z,26.73
2019-06-07T03:17:36.495Z,27.00
2019-06-07T03:20:04.472Z,26.60
2019-06-07T03:22:38.012Z,23.97
2019-06-07T03:25:03.617Z,23.23
2019-06-07T03:27:40.272Z,25.03
2019-06-07T03:30:34.945Z,24.07
2019-06-07T03:32:36.908Z,24.00
2019-06-07T03:35:02.273Z,29.27
2019-06-07T03:37:34.812Z,21.50
2019-06-07T03:40:00.380Z,22.30
2019-06-07T03:42:29.216Z,21.40
2019-06-07T03:44:57.692Z,21.83
2019-06-07T03:47:28.395Z,23.70
2019-06-07T03:49:55.844Z,22.10
2019-06-07T03:52:24.050Z,20.20
2019-06-07T03:54:52.476Z,18.23
2019-06-07T03:57:20.698Z,21.40
2019-06-07T03:59:48.908Z,18.03
2019-06-07T04:02:17.112Z,16.67
2019-06-07T04:04:45.565Z,18.73
2019-06-07T04:07:13.769Z,17.70
2019-06-07T04:09:43.055Z,16.30
2019-06-07T04:12:11.678Z,18.27
2019-06-07T04:14:42.578Z,15.63
2019-06-07T04:17:09.916Z,17.80
2019-06-07T04:19:42.795Z,18.40
2019-06-07T04:22:08.090Z,16.23
2019-06-07T04:24:38.894Z,16.77
2019-06-07T04:27:06.449Z,17.23
2019-06-07T04:29:56.701Z,19.00
2019-06-07T04:32:04.638Z,20.53
2019-06-07T04:34:37.555Z,18.10
2019-06-07T04:37:03.010Z,15.77
2019-06-07T04:39:34.044Z,16.43
2019-06-07T04:42:01.434Z,18.13
2019-06-07T04:44:31.118Z,22.77
2019-06-07T04:46:59.431Z,23.40
2019-06-07T04:49:29.733Z,22.03
2019-06-07T04:51:57.583Z,27.83
2019-06-07T04:54:26.060Z,28.87
2019-06-07T04:56:54.286Z,33.43
2019-06-07T05:00:01.374Z,31.17
2019-06-07T05:01:52.679Z,29.17
2019-06-07T05:04:20.959Z,28.33
2019-06-07T05:06:49.195Z,29.40
2019-06-07T05:09:17.385Z,29.17
2019-06-07T05:11:45.581Z,26.17
2019-06-07T05:14:13.803Z,27.90
2019-06-07T05:16:44.264Z,26.03
2019-06-07T05:19:11.973Z,21.87
2019-06-07T05:22:01.995Z,25.43
2019-06-07T05:24:10.889Z,24.13
2019-06-07T05:26:42.522Z,25.63
2019-06-07T05:29:09.170Z,31.77
2019-06-07T05:31:39.750Z,27.53
2019-06-07T05:34:07.324Z,31.80
2019-06-07T05:36:38.669Z,34.93
2019-06-07T05:39:07.104Z,31.13
2019-06-07T05:41:37.124Z,34.50
2019-06-07T05:44:12.817Z,24.50
2019-06-07T05:46:40.640Z,20.63
2019-06-07T05:49:07.867Z,17.70
2019-06-07T05:51:38.079Z,16.53
2019-06-07T05:54:05.993Z,17.40
2019-06-07T05:56:35.867Z,16.57
2019-06-07T05:59:04.292Z,18.33
2019-06-07T06:01:58.927Z,17.27
2019-06-07T06:04:02.464Z,18.67
2019-06-07T06:06:30.899Z,16.53
2019-06-07T06:09:13.293Z,17.63
2019-06-07T06:11:43.147Z,16.87
2019-06-07T06:14:07.405Z,20.60
2019-06-07T06:16:29.370Z,19.10
2019-06-07T06:18:57.805Z,20.43
2019-06-07T06:21:26.014Z,19.23
2019-06-07T06:23:54.220Z,21.20
2019-06-07T06:26:22.424Z,18.80
2019-06-07T06:28:50.648Z,20.20
2019-06-07T06:31:18.862Z,23.43
2019-06-07T06:33:49.549Z,22.43
2019-06-07T06:36:17.036Z,25.10
2019-06-07T06:38:47.063Z,21.93
2019-06-07T06:41:16.734Z,22.50
2019-06-07T06:43:49.105Z,18.40
2019-06-07T06:46:31.841Z,22.30
2019-06-07T06:48:48.238Z,22.17
2019-06-07T06:51:15.484Z,19.23
2019-06-07T06:53:46.235Z,17.77
2019-06-07T06:56:13.853Z,17.27
2019-06-07T06:59:21.597Z,18.33
2019-06-07T07:01:12.012Z,17.63
2019-06-07T07:04:00.050Z,17.33
2019-06-07T07:06:25.221Z,17.03
2019-06-07T07:08:40.902Z,16.83
2019-06-07T07:11:09.178Z,17.53
2019-06-07T07:13:37.599Z,15.20
2019-06-07T07:16:06.055Z,15.83
2019-06-07T07:18:34.252Z,17.63
2019-06-07T07:21:02.475Z,16.53
2019-06-07T07:23:30.810Z,14.63
2019-06-07T07:26:00.132Z,15.50
2019-06-07T07:28:28.587Z,15.47
2019-06-07T07:30:57.222Z,14.67
2019-06-07T07:33:25.678Z,17.57
2019-06-07T07:36:15.294Z,15.70
2019-06-07T07:38:23.895Z,13.57
2019-06-07T07:41:15.261Z,12.93
2019-06-07T07:43:22.357Z,14.20
2019-06-07T07:45:55.016Z,16.97
2019-06-07T07:48:20.494Z,14.03
2019-06-07T07:50:53.286Z,13.17
2019-06-07T07:53:18.655Z,13.53
2019-06-07T07:55:51.530Z,13.63
2019-06-07T07:58:17.058Z,13.80
2019-06-07T08:01:00.672Z,15.70
2019-06-07T08:03:15.245Z,14.60
2019-06-07T08:05:46.544Z,10.97
2019-06-07T08:08:13.623Z,10.63
2019-06-07T08:10:41.831Z,10.63
2019-06-07T08:13:27.778Z,11.10
2019-06-07T08:15:39.979Z,8.23
2019-06-07T08:18:08.185Z,9.87
2019-06-07T08:20:36.398Z,12.97
2019-06-07T08:23:04.899Z,9.47
2019-06-07T08:25:33.127Z,9.77
2019-06-07T08:28:01.404Z,12.37
2019-06-07T08:33:23.875Z,13.67
2019-06-07T08:36:03.778Z,9.07
2019-06-07T08:38:26.752Z,6.83
2019-06-07T08:40:29.767Z,18.37
2019-06-07T08:43:13.039Z,9.97
2019-06-07T08:45:28.311Z,9.63
2019-06-07T08:47:58.109Z,6.53
2019-06-07T08:50:26.440Z,8.80
2019-06-07T08:53:00.015Z,8.60
2019-06-07T08:55:24.799Z,6.53
2019-06-07T08:57:57.246Z,7.23
2019-06-07T09:00:45.535Z,10.03
2019-06-07T09:02:54.973Z,8.70
2019-06-07T09:05:22.766Z,10.27
2019-06-07T09:08:14.754Z,6.67
2019-06-07T09:10:21.356Z,6.17
2019-06-07T09:12:49.590Z,8.17
2019-06-07T09:15:23.466Z,7.43
2019-06-07T09:18:30.083Z,6.60
2019-06-07T09:20:35.542Z,8.97
2019-06-07T09:22:48.051Z,6.00
2019-06-07T09:25:21.065Z,5.97
2019-06-07T09:27:46.420Z,23.23
2019-06-07T09:30:18.875Z,12.87
2019-06-07T09:32:46.262Z,12.33
2019-06-07T09:35:17.548Z,9.07
2019-06-07T09:40:26.943Z,5.00
2019-06-07T09:42:45.902Z,6.90
2019-06-07T09:45:15.739Z,5.53
2019-06-07T09:47:43.966Z,6.27
2019-06-07T09:50:12.606Z,5.23
2019-06-07T09:52:57.843Z,6.63
2019-06-07T09:55:22.536Z,4.30
2019-06-07T09:57:41.047Z,3.43
2019-06-07T10:00:39.214Z,5.10
2019-06-07T10:02:43.662Z,5.47
2019-06-07T10:05:14.020Z,5.10
2019-06-07T10:07:59.609Z,5.30
2019-06-07T10:12:41.870Z,6.37
2019-06-07T10:15:10.091Z,4.00
2019-06-07T10:17:38.280Z,5.37
2019-06-07T10:20:07.582Z,4.37
2019-06-07T10:22:35.820Z,3.87
2019-06-07T10:25:06.327Z,3.80
2019-06-07T10:27:34.677Z,5.33
2019-06-07T10:30:04.069Z,3.40
2019-06-07T10:32:32.339Z,4.53
2019-06-07T10:35:00.754Z,7.20
2019-06-07T10:37:28.945Z,4.00
2019-06-07T10:39:57.160Z,3.97
2019-06-07T10:42:25.356Z,4.27
2019-06-07T10:44:53.583Z,5.30
2019-06-07T10:47:21.795Z,3.37
2019-06-07T10:49:50.240Z,3.90
2019-06-07T10:52:18.444Z,3.10
2019-06-07T10:54:46.658Z,3.67
2019-06-07T10:57:16.191Z,3.20
2019-06-07T10:59:44.602Z,5.13
2019-06-07T11:02:14.060Z,3.70
2019-06-07T11:04:42.624Z,3.10
2019-06-07T11:07:11.967Z,2.67
2019-06-07T11:09:40.346Z,3.53
2019-06-07T11:12:08.561Z,3.70
2019-06-07T11:14:36.766Z,3.57
2019-06-07T11:17:05.274Z,5.37
2019-06-07T11:19:33.726Z,3.50
2019-06-07T11:22:02.155Z,2.90
2019-06-07T11:24:30.371Z,4.20
2019-06-07T11:26:58.581Z,4.20
2019-06-07T11:29:26.784Z,3.10
2019-06-07T11:31:55.004Z,3.47
2019-06-07T11:34:23.270Z,3.20
2019-06-07T11:36:51.472Z,3.50
2019-06-07T11:39:19.940Z,3.73
2019-06-07T11:41:48.148Z,4.70
2019-06-07T11:44:17.234Z,3.30
2019-06-07T11:46:45.452Z,3.63
2019-06-07T11:49:19.826Z,3.70
2019-06-07T11:51:43.684Z,3.83
2019-06-07T11:54:12.126Z,3.30
2019-06-07T11:56:40.386Z,3.00
2019-06-07T11:59:08.998Z,4.27
2019-06-07T12:01:37.521Z,2.80
2019-06-07T12:04:05.736Z,3.17
2019-06-07T12:06:33.935Z,4.10
2019-06-07T12:09:02.147Z,3.40
2019-06-07T12:11:30.453Z,3.10
2019-06-07T12:13:58.708Z,3.50
2019-06-07T12:16:26.917Z,3.10
2019-06-07T12:18:55.122Z,3.10
2019-06-07T12:21:23.345Z,4.17
2019-06-07T12:23:51.550Z,6.83
2019-06-07T12:26:20.629Z,3.40
2019-06-07T12:28:49.189Z,2.80
2019-06-07T12:31:17.406Z,3.37
2019-06-07T12:33:45.613Z,3.87
2019-06-07T12:36:13.813Z,4.47
2019-06-07T12:38:42.009Z,3.30
2019-06-07T12:41:10.212Z,3.47
2019-06-07T12:43:38.423Z,3.93
2019-06-07T12:46:06.853Z,4.27
2019-06-07T12:48:35.280Z,3.20
2019-06-07T12:51:03.738Z,3.63
2019-06-07T12:53:31.951Z,4.97
2019-06-07T12:56:00.430Z,3.00
2019-06-07T12:58:34.885Z,3.07
2019-06-07T13:00:59.822Z,3.80
2019-06-07T13:03:28.206Z,4.37
2019-06-07T13:05:56.427Z,3.87
2019-06-07T13:08:24.635Z,3.87
2019-06-07T13:10:53.071Z,3.47
2019-06-07T13:13:22.676Z,3.57
2019-06-07T13:15:51.282Z,3.33
2019-06-07T13:18:21.196Z,3.40
2019-06-07T13:20:49.632Z,3.80
2019-06-07T13:23:19.094Z,3.50
2019-06-07T13:25:47.833Z,3.10
2019-06-07T13:28:17.303Z,3.80
2019-06-07T13:30:45.978Z,4.00
2019-06-07T13:33:14.201Z,4.93
2019-06-07T13:35:42.651Z,3.40
2019-06-07T13:38:12.499Z,4.73
2019-06-07T13:40:40.719Z,4.10
2019-06-07T13:43:08.934Z,3.10
2019-06-07T13:45:37.144Z,5.30
2019-06-07T13:48:05.367Z,3.20
2019-06-07T13:50:33.577Z,3.23
2019-06-07T13:53:01.810Z,3.30
2019-06-07T13:55:30.025Z,3.87
2019-06-07T13:57:58.236Z,3.93
2019-06-07T14:00:26.796Z,3.40
2019-06-07T14:02:55.067Z,3.27
2019-06-07T14:05:23.287Z,3.20
2019-06-07T14:07:51.537Z,3.57
2019-06-07T14:10:19.711Z,4.00
2019-06-07T14:12:48.290Z,3.27
2019-06-07T14:15:16.502Z,3.70
2019-06-07T14:17:44.709Z,4.70
2019-06-07T14:20:12.975Z,4.63
2019-06-07T14:22:41.425Z,3.70
2019-06-07T14:25:09.638Z,3.40
2019-06-07T14:27:38.128Z,7.17
2019-06-07T14:30:08.186Z,3.60
2019-06-07T14:32:36.386Z,4.28
2019-06-07T14:35:07.510Z,3.87
2019-06-07T14:37:36.599Z,3.75
2019-06-07T14:40:08.315Z,3.25
2019-06-07T14:42:36.513Z,4.28
2019-06-07T14:45:06.578Z,6.87
2019-06-07T14:47:35.030Z,4.60
2019-06-07T14:50:03.715Z,3.40
2019-06-07T14:52:33.359Z,3.50
2019-06-07T14:55:02.130Z,6.00
2019-06-07T14:57:31.116Z,4.95
2019-06-07T14:59:59.387Z,4.90
2019-06-07T15:02:28.391Z,3.58
2019-06-07T15:04:56.909Z,8.53
2019-06-07T15:07:26.593Z,8.28
2019-06-07T15:09:55.124Z,5.25
2019-06-07T15:12:25.312Z,3.45
2019-06-07T15:14:53.283Z,3.50
2019-06-07T15:17:21.513Z,4.58
2019-06-07T15:19:49.719Z,4.40
2019-06-07T15:22:17.933Z,5.37
2019-06-07T15:24:46.150Z,15.37
2019-06-07T15:27:14.373Z,5.90
2019-06-07T15:29:42.780Z,3.52
2019-06-07T15:32:10.983Z,4.77
2019-06-07T15:34:39.194Z,3.50
2019-06-07T15:37:07.389Z,3.93
2019-06-07T15:39:36.579Z,4.92
2019-06-07T15:42:05.133Z,3.80
2019-06-07T15:44:33.552Z,3.92
2019-06-07T15:47:01.756Z,4.10
2019-06-07T15:49:30.357Z,4.53
2019-06-07T15:51:58.792Z,4.03
2019-06-07T15:54:27.070Z,3.40
2019-06-07T15:56:55.313Z,3.40
2019-06-07T15:59:23.530Z,4.20
2019-06-07T16:01:51.799Z,3.80
2019-06-07T16:04:20.236Z,6.03
2019-06-07T16:06:48.513Z,3.80
2019-06-07T16:09:16.713Z,3.80
2019-06-07T16:11:44.921Z,3.83
2019-06-07T16:14:13.341Z,3.70
2019-06-07T16:16:43.249Z,6.33
2019-06-07T16:19:11.677Z,4.03
2019-06-07T16:21:39.884Z,5.37
2019-06-07T16:24:08.082Z,4.33
2019-06-07T16:26:36.350Z,5.33
2019-06-07T16:29:04.563Z,4.50
2019-06-07T16:31:32.764Z,4.90
2019-06-07T16:34:01.166Z,5.30
2019-06-07T16:36:29.479Z,3.30
2019-06-07T16:38:57.669Z,5.43
2019-06-07T16:41:25.904Z,4.73
2019-06-07T16:43:54.091Z,3.33
2019-06-07T16:46:23.282Z,4.57
2019-06-07T16:48:51.486Z,3.77
2019-06-07T16:51:19.706Z,4.27
2019-06-07T16:53:48.591Z,3.37
2019-06-07T16:56:16.837Z,3.27
2019-06-07T16:58:46.504Z,3.33
2019-06-07T17:01:14.735Z,3.30
2019-06-07T17:03:43.540Z,2.47
2019-06-07T17:06:11.808Z,5.80
2019-06-07T17:08:40.189Z,4.03
2019-06-07T17:11:08.520Z,10.33
2019-06-07T17:13:36.722Z,2.50
2019-06-07T17:16:04.944Z,3.53
2019-06-07T17:18:36.959Z,2.30
2019-06-07T17:21:03.341Z,2.83
2019-06-07T17:23:31.556Z,4.07
2019-06-07T17:25:59.753Z,1.57
2019-06-07T17:28:28.198Z,8.70
2019-06-07T17:30:56.648Z,4.83
2019-06-07T17:33:24.857Z,2.43
2019-06-07T17:35:53.062Z,3.87
2019-06-07T17:38:21.303Z,4.50
2019-06-07T17:40:49.501Z,3.43
2019-06-07T17:43:17.703Z,2.73
2019-06-07T17:45:47.391Z,2.63
2019-06-07T17:48:15.792Z,3.67
2019-06-07T17:50:44.038Z,5.50
2019-06-07T17:53:12.468Z,3.47
2019-06-07T17:55:41.963Z,4.83
2019-06-07T17:58:10.277Z,3.53
2019-06-07T18:00:51.044Z,1.60
2019-06-07T18:03:19.366Z,5.93
2019-06-07T18:05:49.255Z,3.47
2019-06-07T18:08:17.577Z,2.83
2019-06-07T18:10:46.173Z,3.90
2019-06-07T18:13:14.392Z,3.70
2019-06-07T18:15:44.471Z,6.33
2019-06-07T18:18:12.756Z,3.13
2019-06-07T18:20:40.953Z,2.13
2019-06-07T18:23:09.157Z,2.57
2019-06-07T18:25:37.356Z,2.27
2019-06-07T18:28:05.578Z,2.27
2019-06-07T18:30:33.777Z,2.80
2019-06-07T18:33:01.993Z,3.27
2019-06-07T18:35:30.218Z,3.53
2019-06-07T18:37:59.318Z,3.70
2019-06-07T18:40:27.530Z,3.40
2019-06-07T18:42:55.728Z,1.47
2019-06-07T18:45:23.917Z,3.70
2019-06-07T18:47:53.456Z,4.73
2019-06-07T18:50:21.922Z,1.50
2019-06-07T18:52:50.879Z,2.80
2019-06-07T18:55:19.125Z,5.10
2019-06-07T18:57:48.116Z,3.57
2019-06-07T19:00:18.073Z,2.30
2019-06-07T19:02:47.623Z,2.07
2019-06-07T19:05:16.172Z,2.43
2019-06-07T19:07:44.381Z,7.60
2019-06-07T19:10:13.959Z,3.73
2019-06-07T19:12:42.398Z,1.10
2019-06-07T19:15:11.754Z,1.27
2019-06-07T19:17:39.967Z,0.90
2019-06-07T19:20:08.389Z,1.43
2019-06-07T19:22:36.981Z,1.43
2019-06-07T19:25:06.024Z,2.20
2019-06-07T19:27:34.232Z,6.13
2019-06-07T19:30:02.473Z,1.97
2019-06-07T19:32:30.674Z,1.40
2019-06-07T19:34:59.439Z,2.43
2019-06-07T19:37:27.680Z,2.03
2019-06-07T19:39:56.113Z,1.30
2019-06-07T19:42:24.322Z,1.60
2019-06-07T19:44:59.186Z,3.27
2019-06-07T19:47:22.687Z,1.80
2019-06-07T19:49:52.969Z,3.80
2019-06-07T19:52:21.294Z,2.07
2019-06-07T19:54:49.782Z,1.53
2019-06-07T19:57:18.028Z,2.30
2019-06-07T19:59:46.258Z,2.57
2019-06-07T20:02:14.478Z,1.33
2019-06-07T20:04:42.690Z,1.50
2019-06-07T20:07:10.893Z,2.77
2019-06-07T20:09:39.102Z,2.37
2019-06-07T20:12:07.316Z,1.17
2019-06-07T20:14:35.538Z,1.93
2019-06-07T20:17:03.746Z,5.30
2019-06-07T20:19:31.926Z,2.87
2019-06-07T20:22:01.045Z,3.97
2019-06-07T20:24:29.328Z,2.17
2019-06-07T20:26:58.246Z,2.23
2019-06-07T20:29:29.535Z,3.10
2019-06-07T20:31:56.669Z,1.80
2019-06-07T20:34:24.880Z,2.67
2019-06-07T20:36:53.094Z,2.13
2019-06-07T20:39:21.292Z,2.53
2019-06-07T20:41:49.542Z,1.87
2019-06-07T20:44:17.758Z,2.30
2019-06-07T20:46:45.992Z,4.23
2019-06-07T20:49:14.210Z,2.50
2019-06-07T20:51:42.758Z,3.47
2019-06-07T20:54:10.969Z,3.07
2019-06-07T20:56:39.180Z,2.10
2019-06-07T20:59:07.393Z,3.33
2019-06-07T21:01:35.602Z,5.87
2019-06-07T21:04:05.069Z,2.57
2019-06-07T21:06:33.282Z,3.80
2019-06-07T21:09:01.594Z,3.57
2019-06-07T21:11:30.107Z,4.07
2019-06-07T21:13:58.295Z,2.30
2019-06-07T21:16:26.723Z,2.23
2019-06-07T21:18:54.922Z,1.83
2019-06-07T21:21:23.138Z,4.87
2019-06-07T21:23:51.337Z,3.47
2019-06-07T21:26:19.543Z,2.00
2019-06-07T21:28:47.754Z,2.17
2019-06-07T21:31:15.956Z,1.87
2019-06-07T21:33:44.163Z,4.47
2019-06-07T21:36:12.383Z,2.43
2019-06-07T21:38:40.576Z,2.20
2019-06-07T21:41:10.510Z,3.63
2019-06-07T21:43:38.802Z,2.97
2019-06-07T21:46:11.498Z,1.93
2019-06-07T21:48:36.930Z,2.97
2019-06-07T21:51:06.348Z,2.37
2019-06-07T21:53:34.861Z,3.07
2019-06-07T21:56:03.062Z,2.93
2019-06-07T21:58:31.271Z,2.20
2019-06-07T22:01:04.229Z,5.03
2019-06-07T22:03:32.677Z,7.00
2019-06-07T22:06:00.872Z,2.93
2019-06-07T22:08:29.081Z,4.03
2019-06-07T22:10:57.501Z,2.50
2019-06-07T22:13:25.728Z,3.40
2019-06-07T22:15:53.908Z,5.07
2019-06-07T22:18:22.127Z,2.40
2019-06-07T22:20:50.536Z,1.70
2019-06-07T22:23:18.754Z,1.67
2019-06-07T22:25:46.953Z,2.20
2019-06-07T22:28:15.174Z,2.70
2019-06-07T22:30:43.367Z,1.50
2019-06-07T22:33:13.339Z,3.57
2019-06-07T22:35:41.496Z,2.20
2019-06-07T22:38:10.259Z,2.43
2019-06-07T22:40:38.487Z,8.37
2019-06-07T22:43:07.486Z,3.83
2019-06-07T22:45:35.767Z,2.43
2019-06-07T22:48:03.983Z,2.77
2019-06-07T22:50:32.190Z,2.60
2019-06-07T22:53:00.411Z,5.13
2019-06-07T22:55:28.618Z,1.60
2019-06-07T22:57:58.493Z,3.00
2019-06-07T23:00:28.596Z,2.23
2019-06-07T23:02:56.813Z,3.23
2019-06-07T23:05:25.221Z,2.30
2019-06-07T23:07:53.428Z,1.47
2019-06-07T23:10:21.624Z,2.90
2019-06-07T23:12:50.054Z,4.87
2019-06-07T23:15:20.440Z,2.90
2019-06-07T23:17:48.382Z,2.03
2019-06-07T23:20:17.858Z,4.13
2019-06-07T23:22:46.351Z,1.77
2019-06-07T23:25:18.865Z,1.47
2019-06-07T23:27:44.481Z,2.40
2019-06-07T23:30:12.690Z,1.97
2019-06-07T23:32:40.890Z,1.80
2019-06-07T23:35:09.163Z,2.80
2019-06-07T23:37:37.370Z,4.33
2019-06-07T23:40:05.647Z,0.83
2019-06-07T23:42:33.840Z,2.80
2019-06-07T23:45:02.054Z,0.97
2019-06-07T23:47:30.244Z,1.00
2019-06-07T23:49:58.670Z,2.40
2019-06-07T23:52:26.894Z,1.83
2019-06-07T23:54:55.108Z,2.83
2019-06-07T23:57:23.301Z,2.67
2019-06-07T23:59:51.508Z,3.33
